This is the latest recevied weather packets stored in our database for station/object K3RUP-1. If no packets are shown the sender has not sent any weather packets the latest 10 day(s).
| Time | Temp. | Humidity | Pressure | Rain* | Wind** | Luminosity | Snow |
|---|---|---|---|---|---|---|---|
| 1778087108 | 17.78° C | 96% | 1008.2 hPa | 0 mm | - | 195 W/m² | - |
| 1778086806 | 17.78° C | 97% | 1008.5 hPa | 0 mm | - | 207 W/m² | - |
| 1778086504 | 17.22° C | 97% | 1008.6 hPa | 0 mm | - | 188 W/m² | - |
| 1778086194 | 17.22° C | 97% | 1008.8 hPa | 0 mm | - | 105 W/m² | - |
| 1778085891 | 17.22° C | 98% | 1008.7 hPa | 0 mm | - | 109 W/m² | - |
| 1778085589 | 17.22° C | 98% | 1008.5 hPa | 0 mm | - | 145 W/m² | - |
| 1778085284 | 17.22° C | 98% | 1008.6 hPa | 0 mm | - | 131 W/m² | - |
| 1778084979 | 17.78° C | 98% | 1008.5 hPa | 0 mm | - | 197 W/m² | - |
| 1778084677 | 17.78° C | 98% | 1008.4 hPa | 0 mm | - | 191 W/m² | - |
| 1778084374 | 17.22° C | 98% | 1008.4 hPa | 0 mm | - | 303 W/m² | - |
| 1778084072 | 17.22° C | 98% | 1008.4 hPa | 0 mm | - | 298 W/m² | - |
| 1778083769 | 16.67° C | 98% | 1008.9 hPa | 0 mm | - | 121 W/m² | - |
| 1778083467 | 16.67° C | 98% | 1009.2 hPa | 0 mm | - | 87 W/m² | - |
| 1778083164 | 16.67° C | 98% | 1009.2 hPa | 0 mm | - | 82 W/m² | - |
| 1778082861 | 16.67° C | 98% | 1009.2 hPa | 1.78 mm | - | 111 W/m² | - |
| 1778081743 | 16.67° C | 97% | 1009 hPa | 1.27 mm | - | 159 W/m² | - |
| 1778081440 | 16.67° C | 97% | 1009.3 hPa | 1.27 mm | - | 98 W/m² | - |
| 1778081137 | 16.67° C | 97% | 1009.3 hPa | 0 mm | - | 69 W/m² | - |
| 1778080835 | 16.67° C | 97% | 1009.7 hPa | 0 mm | - | 91 W/m² | - |
| 1778080533 | 16.67° C | 96% | 1009.8 hPa | 1.78 mm | - | 97 W/m² | - |
| 1778080230 | 16.67° C | 96% | 1009.7 hPa | 1.78 mm | - | 95 W/m² | - |
| 1778079926 | 16.67° C | 96% | 1009.8 hPa | 4.32 mm | - | 98 W/m² | - |
| 1778079623 | 16.67° C | 96% | 1009.8 hPa | 6.1 mm | - | 52 W/m² | - |
| 1778079320 | 16.67° C | 95% | 1009.8 hPa | 3.56 mm | - | 49 W/m² | - |
| 1778079018 | 16.67° C | 95% | 1010 hPa | 3.05 mm | - | 48 W/m² | - |
* Rain latest hour (hover to see other rain measurements)
** Current wind speed in m/s (hover to see current wind gust speed)